createdAt,value
2022-09-10T00:00:01.311Z,61.14
2022-09-10T00:02:27.679Z,61.41
2022-09-10T00:04:54.015Z,61.29
2022-09-10T00:07:20.323Z,61.47
2022-09-10T00:09:46.631Z,61.26
2022-09-10T00:12:12.957Z,61.20
2022-09-10T00:14:40.569Z,61.33
2022-09-10T00:17:07.131Z,61.39
2022-09-10T00:19:33.434Z,61.34
2022-09-10T00:21:59.772Z,61.32
2022-09-10T00:24:26.139Z,61.36
2022-09-10T00:26:52.457Z,61.43
2022-09-10T00:29:18.767Z,61.32
2022-09-10T00:31:46.555Z,61.27
2022-09-10T00:34:13.360Z,61.18
2022-09-10T00:36:40.453Z,61.35
2022-09-10T00:39:07.666Z,61.28
2022-09-10T00:41:35.495Z,61.24
2022-09-10T00:44:03.417Z,61.35
2022-09-10T00:46:33.287Z,61.32
2022-09-10T00:49:02.931Z,61.38
2022-09-10T00:51:32.142Z,61.44
2022-09-10T00:53:58.912Z,61.50
2022-09-10T00:56:25.573Z,61.64
2022-09-10T00:58:51.995Z,61.44
2022-09-10T01:01:18.937Z,61.33
2022-09-10T01:03:46.260Z,61.43
2022-09-10T01:06:13.868Z,61.54
2022-09-10T01:08:40.331Z,61.47
2022-09-10T01:11:11.923Z,61.60
2022-09-10T01:13:45.059Z,61.56
2022-09-10T01:16:16.989Z,61.52
2022-09-10T01:18:49.850Z,61.72
2022-09-10T01:21:22.528Z,61.47
2022-09-10T01:24:10.031Z,61.62
2022-09-10T01:26:48.383Z,61.56
2022-09-10T01:29:20.092Z,61.83
2022-09-10T01:31:50.695Z,61.81
2022-09-10T01:34:20.275Z,61.88
2022-09-10T01:36:48.770Z,61.82
2022-09-10T01:39:15.529Z,61.87
2022-09-10T01:41:42.099Z,61.79
2022-09-10T01:44:09.193Z,61.98
2022-09-10T01:46:40.059Z,61.98
2022-09-10T01:49:14.693Z,62.14
2022-09-10T01:51:52.577Z,62.30
2022-09-10T01:54:22.619Z,62.18
2022-09-10T01:56:53.200Z,62.22
2022-09-10T01:59:24.063Z,62.43
2022-09-10T02:01:55.099Z,62.50
2022-09-10T02:04:22.283Z,62.56
2022-09-10T02:06:49.646Z,62.57
2022-09-10T02:09:16.718Z,62.66
2022-09-10T02:11:43.829Z,62.87
2022-09-10T02:14:10.279Z,62.90
2022-09-10T02:16:38.956Z,62.81
2022-09-10T02:19:07.155Z,63.26
2022-09-10T02:21:33.977Z,63.38
2022-09-10T02:24:03.187Z,63.37
2022-09-10T02:26:29.520Z,63.41
2022-09-10T02:28:55.847Z,63.43
2022-09-10T02:31:22.252Z,63.42
2022-09-10T02:33:48.602Z,63.51
2022-09-10T02:36:16.345Z,63.57
2022-09-10T02:38:42.674Z,63.63
2022-09-10T02:41:08.978Z,63.70
2022-09-10T02:43:35.308Z,63.78
2022-09-10T02:46:01.660Z,63.70
2022-09-10T02:48:28.219Z,63.84
2022-09-10T02:50:54.536Z,63.98
2022-09-10T02:53:22.139Z,63.76
2022-09-10T02:55:48.775Z,63.79
2022-09-10T02:58:15.826Z,63.84
2022-09-10T03:00:42.723Z,63.93
2022-09-10T03:03:09.159Z,63.85
2022-09-10T03:05:35.461Z,64.01
2022-09-10T03:08:02.014Z,63.98
2022-09-10T03:10:29.635Z,64.00
2022-09-10T03:12:55.954Z,64.11
2022-09-10T03:15:22.256Z,64.01
2022-09-10T03:17:48.588Z,64.24
2022-09-10T03:20:15.210Z,64.24
2022-09-10T03:22:41.567Z,64.06
2022-09-10T03:25:07.897Z,64.03
2022-09-10T03:27:35.931Z,64.33
2022-09-10T03:30:02.404Z,64.08
2022-09-10T03:32:28.735Z,64.24
2022-09-10T03:34:55.059Z,64.21
2022-09-10T03:37:21.358Z,64.36
2022-09-10T03:39:47.802Z,64.28
2022-09-10T03:42:14.150Z,64.41
2022-09-10T03:44:41.752Z,64.35
2022-09-10T03:47:08.096Z,64.62
2022-09-10T03:49:34.386Z,64.58
2022-09-10T03:52:00.790Z,64.61
2022-09-10T03:54:27.105Z,64.55
2022-09-10T03:56:53.434Z,64.51
2022-09-10T03:59:19.852Z,64.60
2022-09-10T04:01:47.479Z,64.51
2022-09-10T04:04:13.836Z,64.36
2022-09-10T04:06:40.175Z,64.32
2022-09-10T04:09:06.529Z,64.33
2022-09-10T04:11:32.908Z,64.37
2022-09-10T04:13:59.232Z,64.57
2022-09-10T04:16:25.600Z,64.37
2022-09-10T04:18:53.233Z,64.38
2022-09-10T04:21:19.523Z,64.64
2022-09-10T04:23:45.846Z,64.59
2022-09-10T04:26:13.054Z,64.70
2022-09-10T04:28:39.494Z,64.61
2022-09-10T04:31:06.071Z,64.94
2022-09-10T04:33:32.386Z,64.82
2022-09-10T04:36:00.141Z,64.79
2022-09-10T04:38:26.497Z,64.73
2022-09-10T04:40:52.794Z,65.00
2022-09-10T04:43:19.212Z,64.76
2022-09-10T04:45:45.646Z,64.81
2022-09-10T04:48:11.970Z,64.71
2022-09-10T04:50:49.983Z,64.82
2022-09-10T04:53:27.015Z,64.83
2022-09-10T04:55:54.326Z,65.01
2022-09-10T04:58:20.678Z,64.95
2022-09-10T05:00:47.041Z,64.76
2022-09-10T05:03:13.490Z,64.96
2022-09-10T05:05:40.152Z,65.04
2022-09-10T05:08:06.472Z,65.17
2022-09-10T05:10:34.083Z,64.99
2022-09-10T05:13:00.387Z,64.99
2022-09-10T05:15:26.815Z,65.10
2022-09-10T05:17:53.139Z,65.06
2022-09-10T05:20:19.451Z,65.03
2022-09-10T05:22:45.752Z,64.99
2022-09-10T05:25:12.072Z,64.95
2022-09-10T05:27:39.733Z,64.87
2022-09-10T05:30:06.571Z,65.00
2022-09-10T05:32:32.888Z,65.02
2022-09-10T05:34:59.279Z,64.99
2022-09-10T05:37:25.630Z,65.19
2022-09-10T05:39:51.954Z,65.20
2022-09-10T05:42:18.332Z,65.24
2022-09-10T05:44:45.953Z,65.31
2022-09-10T05:47:12.326Z,65.17
2022-09-10T05:49:38.654Z,65.06
2022-09-10T05:52:05.026Z,64.96
2022-09-10T05:54:31.330Z,65.18
2022-09-10T05:56:57.812Z,65.13
2022-09-10T05:59:24.302Z,64.99
2022-09-10T06:01:51.935Z,64.90
2022-09-10T06:04:18.336Z,64.90
2022-09-10T06:06:44.736Z,64.79
2022-09-10T06:09:11.367Z,64.95
2022-09-10T06:11:38.473Z,64.82
2022-09-10T06:14:04.842Z,64.77
2022-09-10T06:16:31.462Z,64.70
2022-09-10T06:18:59.225Z,64.87
2022-09-10T06:21:28.283Z,65.05
2022-09-10T06:23:55.128Z,65.03
2022-09-10T06:26:21.598Z,65.01
2022-09-10T06:28:48.230Z,65.01
2022-09-10T06:31:14.556Z,64.91
2022-09-10T06:33:40.882Z,64.68
2022-09-10T06:36:08.974Z,64.73
2022-09-10T06:38:35.400Z,64.65
2022-09-10T06:41:03.499Z,64.71
2022-09-10T06:43:32.059Z,64.64
2022-09-10T06:45:58.575Z,64.65
2022-09-10T06:48:49.656Z,64.72
2022-09-10T06:51:14.165Z,64.66
2022-09-10T06:53:40.964Z,64.64
2022-09-10T06:56:08.055Z,64.66
2022-09-10T06:58:34.789Z,64.75
2022-09-10T07:01:05.471Z,64.90
2022-09-10T07:03:31.782Z,64.81
2022-09-10T07:06:02.044Z,64.70
2022-09-10T07:08:29.652Z,64.92
2022-09-10T07:11:00.889Z,64.71
2022-09-10T07:13:27.308Z,64.91
2022-09-10T07:15:53.656Z,64.88
2022-09-10T07:18:20.084Z,65.13
2022-09-10T07:20:46.521Z,64.91
2022-09-10T07:23:13.522Z,65.16
2022-09-10T07:25:41.639Z,65.01
2022-09-10T07:28:12.384Z,65.00
2022-09-10T07:30:39.087Z,65.10
2022-09-10T07:33:05.451Z,65.07
2022-09-10T07:35:33.732Z,65.76
2022-09-10T07:38:00.069Z,65.54
2022-09-10T07:40:26.463Z,65.23
2022-09-10T07:42:54.225Z,65.76
2022-09-10T07:45:20.547Z,65.69
2022-09-10T07:47:47.345Z,65.53
2022-09-10T07:50:13.958Z,65.38
2022-09-10T07:52:40.562Z,65.73
2022-09-10T07:55:07.482Z,65.76
2022-09-10T07:57:34.143Z,65.87
2022-09-10T08:00:01.880Z,65.67
2022-09-10T08:02:28.257Z,65.68
2022-09-10T08:04:54.615Z,65.73
2022-09-10T08:07:20.942Z,66.16
2022-09-10T08:09:47.291Z,66.08
2022-09-10T08:12:13.632Z,66.02
2022-09-10T08:14:40.037Z,66.24
2022-09-10T08:17:07.636Z,66.37
2022-09-10T08:19:33.964Z,66.36
2022-09-10T08:22:00.257Z,66.37
2022-09-10T08:24:26.579Z,66.34
2022-09-10T08:26:53.010Z,66.26
2022-09-10T08:29:19.332Z,66.06
2022-09-10T08:31:45.706Z,66.13
2022-09-10T08:34:13.483Z,66.16
2022-09-10T08:36:39.816Z,66.21
2022-09-10T08:39:08.389Z,66.24
2022-09-10T08:41:42.519Z,66.19
2022-09-10T08:44:12.212Z,66.28
2022-09-10T08:46:42.932Z,66.32
2022-09-10T08:49:14.282Z,66.25
2022-09-10T08:51:44.717Z,66.25
2022-09-10T08:54:13.704Z,66.22
2022-09-10T08:56:40.408Z,66.12
2022-09-10T08:59:12.557Z,66.07
2022-09-10T09:01:42.428Z,66.22
2022-09-10T09:04:12.731Z,66.36
2022-09-10T09:06:41.173Z,66.34
2022-09-10T09:09:14.785Z,66.40
2022-09-10T09:11:49.177Z,66.42
2022-09-10T09:14:20.771Z,66.37
2022-09-10T09:16:56.641Z,66.37
2022-09-10T09:19:26.953Z,66.50
2022-09-10T09:21:54.015Z,66.30
2022-09-10T09:24:23.596Z,66.57
2022-09-10T09:26:49.963Z,66.56
2022-09-10T09:29:19.286Z,66.59
2022-09-10T09:31:47.568Z,66.76
2022-09-10T09:34:15.619Z,66.64
2022-09-10T09:36:45.550Z,66.61
2022-09-10T09:39:15.036Z,66.31
2022-09-10T09:41:51.606Z,66.39
2022-09-10T09:44:21.797Z,66.42
2022-09-10T09:46:48.138Z,66.51
2022-09-10T09:49:15.308Z,66.55
2022-09-10T09:51:41.974Z,66.46
2022-09-10T09:54:46.662Z,66.66
2022-09-10T09:56:59.342Z,66.55
2022-09-10T09:59:27.154Z,66.69
2022-09-10T10:01:54.302Z,66.87
2022-09-10T10:04:21.727Z,66.88
2022-09-10T10:06:53.680Z,66.69
2022-09-10T10:09:21.345Z,66.68
2022-09-10T10:11:49.843Z,66.78
2022-09-10T10:14:32.452Z,66.54
2022-09-10T10:17:00.887Z,66.47
2022-09-10T10:19:29.694Z,66.52
2022-09-10T10:21:56.024Z,66.62
2022-09-10T10:24:29.530Z,66.74
2022-09-10T10:26:55.872Z,66.47
2022-09-10T10:29:22.236Z,66.73
2022-09-10T10:31:50.720Z,66.87
2022-09-10T10:34:28.996Z,66.97
2022-09-10T10:37:01.277Z,66.89
2022-09-10T10:39:36.938Z,67.07
2022-09-10T10:42:08.891Z,66.95
2022-09-10T10:44:44.143Z,67.00
2022-09-10T10:47:22.462Z,67.07
2022-09-10T10:49:56.942Z,66.86
2022-09-10T10:52:26.467Z,67.13
2022-09-10T10:54:59.420Z,66.97
2022-09-10T10:57:30.641Z,67.20
2022-09-10T10:59:59.630Z,66.65
2022-09-10T11:02:34.704Z,66.91
2022-09-10T11:05:05.134Z,67.53
2022-09-10T11:07:34.066Z,67.72
2022-09-10T11:10:03.592Z,67.69
2022-09-10T11:12:31.594Z,68.03
2022-09-10T11:15:00.275Z,68.18
2022-09-10T11:17:29.802Z,68.17
2022-09-10T11:20:27.756Z,68.20
2022-09-10T11:22:51.438Z,68.06
2022-09-10T11:25:20.928Z,68.10
2022-09-10T11:27:50.316Z,68.31
2022-09-10T11:30:17.102Z,68.02
2022-09-10T11:32:46.379Z,67.99
2022-09-10T11:35:19.484Z,67.93
2022-09-10T11:37:50.085Z,67.96
2022-09-10T11:40:19.524Z,68.07
2022-09-10T11:42:50.548Z,67.99
2022-09-10T11:45:18.450Z,68.07
2022-09-10T11:47:48.399Z,67.80
2022-09-10T11:50:22.412Z,67.97
2022-09-10T11:52:48.922Z,68.16
2022-09-10T11:55:16.294Z,68.38
2022-09-10T11:57:47.829Z,67.96
2022-09-10T12:00:15.506Z,67.87
2022-09-10T12:02:56.733Z,67.42
2022-09-10T12:05:27.631Z,67.85
2022-09-10T12:07:59.511Z,68.08
2022-09-10T12:10:31.684Z,68.12
2022-09-10T12:12:58.417Z,68.08
2022-09-10T12:15:26.083Z,68.45
2022-09-10T12:17:55.707Z,68.29
2022-09-10T12:20:27.382Z,68.37
2022-09-10T12:22:55.362Z,68.50
2022-09-10T12:25:24.873Z,68.41
2022-09-10T12:27:52.413Z,68.53
2022-09-10T12:30:30.413Z,68.25
2022-09-10T12:32:57.478Z,68.44
2022-09-10T12:35:38.658Z,68.19
2022-09-10T12:38:19.798Z,68.13
2022-09-10T12:40:47.469Z,68.36
2022-09-10T12:43:28.601Z,68.81
2022-09-10T12:46:03.898Z,68.67
2022-09-10T12:48:32.390Z,68.80
2022-09-10T12:50:59.286Z,69.07
2022-09-10T12:53:37.359Z,69.44
2022-09-10T12:56:15.833Z,69.33
2022-09-10T12:58:51.202Z,69.24
2022-09-10T13:01:23.628Z,69.12
2022-09-10T13:03:54.887Z,69.71
2022-09-10T13:06:33.405Z,69.66
2022-09-10T13:08:59.768Z,69.68
2022-09-10T13:11:30.159Z,69.27
2022-09-10T13:14:00.718Z,68.95
2022-09-10T13:16:37.185Z,69.21
2022-09-10T13:19:18.364Z,68.43
2022-09-10T13:21:53.424Z,68.72
2022-09-10T13:24:32.222Z,68.65
2022-09-10T13:27:04.407Z,68.33
2022-09-10T13:29:33.627Z,68.55
2022-09-10T13:32:03.346Z,68.17
2022-09-10T13:34:40.582Z,68.22
2022-09-10T13:37:22.043Z,68.41
2022-09-10T13:40:02.178Z,68.29
2022-09-10T13:42:39.928Z,68.38
2022-09-10T13:45:20.489Z,68.35
2022-09-10T13:47:48.341Z,68.24
2022-09-10T13:50:17.474Z,68.54
2022-09-10T13:52:45.922Z,68.52
2022-09-10T13:55:15.153Z,68.54
2022-09-10T13:57:44.552Z,68.67
2022-09-10T14:00:19.119Z,68.54
2022-09-10T14:02:46.256Z,68.59
2022-09-10T14:05:27.520Z,68.50
2022-09-10T14:07:54.924Z,68.66
2022-09-10T14:10:21.428Z,68.24
2022-09-10T14:12:50.050Z,68.05
2022-09-10T14:15:19.497Z,68.02
2022-09-10T14:17:48.200Z,67.86
2022-09-10T14:20:17.858Z,67.79
2022-09-10T14:22:44.431Z,67.65
2022-09-10T14:25:25.601Z,67.67
2022-09-10T14:27:55.335Z,67.96
2022-09-10T14:30:24.358Z,68.12
2022-09-10T14:32:51.427Z,68.21
2022-09-10T14:35:30.669Z,68.18
2022-09-10T14:37:56.999Z,68.51
2022-09-10T14:40:23.353Z,68.51
2022-09-10T14:42:50.345Z,68.61
2022-09-10T14:45:31.516Z,68.50
2022-09-10T14:47:59.197Z,68.28
2022-09-10T14:50:27.416Z,68.17
2022-09-10T14:52:54.209Z,68.04
2022-09-10T14:55:20.979Z,67.83
2022-09-10T14:57:47.291Z,67.79
2022-09-10T15:00:14.433Z,67.87
2022-09-10T15:02:41.679Z,67.72
2022-09-10T15:05:12.265Z,67.60
2022-09-10T15:07:38.758Z,67.55
2022-09-10T15:10:05.625Z,67.62
2022-09-10T15:12:32.359Z,67.74
2022-09-10T15:14:58.842Z,67.54
2022-09-10T15:17:25.334Z,67.65
2022-09-10T15:19:51.635Z,67.65
2022-09-10T15:22:21.229Z,67.42
2022-09-10T15:25:08.669Z,67.43
2022-09-10T15:27:33.931Z,67.32
2022-09-10T15:30:00.222Z,67.22
2022-09-10T15:32:26.534Z,67.19
2022-09-10T15:34:52.875Z,67.38
2022-09-10T15:37:20.505Z,67.41
2022-09-10T15:39:46.972Z,67.46
2022-09-10T15:42:13.753Z,67.54
2022-09-10T15:44:40.071Z,67.84
2022-09-10T15:47:06.422Z,67.79
2022-09-10T15:49:34.361Z,68.21
2022-09-10T15:52:00.674Z,67.90
2022-09-10T15:54:28.339Z,67.79
2022-09-10T15:56:54.649Z,67.55
2022-09-10T15:59:22.550Z,67.65
2022-09-10T16:01:48.886Z,67.81
2022-09-10T16:04:15.189Z,67.74
2022-09-10T16:06:41.522Z,67.53
2022-09-10T16:09:08.774Z,67.63
2022-09-10T16:11:37.725Z,67.47
2022-09-10T16:14:05.468Z,67.41
2022-09-10T16:16:31.920Z,67.45
2022-09-10T16:18:58.232Z,67.42
2022-09-10T16:21:25.941Z,67.61
2022-09-10T16:23:53.671Z,67.69
2022-09-10T16:26:21.484Z,67.10
2022-09-10T16:28:50.357Z,66.94
2022-09-10T16:31:17.754Z,66.71
2022-09-10T16:33:45.019Z,66.89
2022-09-10T16:36:11.756Z,67.09
2022-09-10T16:38:38.225Z,67.02
2022-09-10T16:41:05.875Z,66.73
2022-09-10T16:43:32.795Z,66.85
2022-09-10T16:46:00.536Z,66.52
2022-09-10T16:48:26.900Z,66.43
2022-09-10T16:50:53.260Z,66.45
2022-09-10T16:53:19.560Z,66.52
2022-09-10T16:55:45.874Z,66.23
2022-09-10T16:58:12.204Z,66.36
2022-09-10T17:00:38.495Z,66.25
2022-09-10T17:03:06.219Z,66.22
2022-09-10T17:05:32.548Z,66.33
2022-09-10T17:07:58.882Z,66.07
2022-09-10T17:10:25.181Z,66.06
2022-09-10T17:12:51.515Z,66.28
2022-09-10T17:15:17.924Z,66.29
2022-09-10T17:17:44.205Z,65.74
2022-09-10T17:20:11.810Z,65.92
2022-09-10T17:22:38.130Z,65.76
2022-09-10T17:25:04.726Z,65.81
2022-09-10T17:27:31.073Z,65.94
2022-09-10T17:29:57.395Z,65.74
2022-09-10T17:32:23.764Z,65.55
2022-09-10T17:34:50.195Z,65.57
2022-09-10T17:37:17.842Z,65.25
2022-09-10T17:39:44.202Z,65.41
2022-09-10T17:42:10.550Z,65.33
2022-09-10T17:44:36.863Z,65.19
2022-09-10T17:47:03.274Z,65.26
2022-09-10T17:49:29.563Z,65.05
2022-09-10T17:51:55.898Z,65.08
2022-09-10T17:54:23.582Z,64.94
2022-09-10T17:56:49.883Z,64.94
2022-09-10T17:59:16.201Z,64.72
2022-09-10T18:01:42.779Z,64.44
2022-09-10T18:04:10.416Z,64.44
2022-09-10T18:06:37.101Z,64.35
2022-09-10T18:09:04.006Z,64.39
2022-09-10T18:11:32.709Z,64.28
2022-09-10T18:13:59.459Z,64.39
2022-09-10T18:16:26.581Z,64.54
2022-09-10T18:18:53.513Z,64.33
2022-09-10T18:21:20.984Z,64.21
2022-09-10T18:23:50.044Z,64.26
2022-09-10T18:26:17.522Z,64.35
2022-09-10T18:28:51.389Z,64.57
2022-09-10T18:31:17.745Z,64.57
2022-09-10T18:33:44.092Z,64.56
2022-09-10T18:36:11.345Z,64.52
2022-09-10T18:38:37.753Z,64.60
2022-09-10T18:41:04.114Z,64.78
2022-09-10T18:43:30.649Z,64.79
2022-09-10T18:46:01.085Z,64.67
2022-09-10T18:48:27.404Z,64.60
2022-09-10T18:50:53.852Z,64.73
2022-09-10T18:53:20.165Z,64.57
2022-09-10T18:55:46.475Z,64.70
2022-09-10T18:58:12.789Z,64.67
2022-09-10T19:00:39.096Z,64.64
2022-09-10T19:03:06.713Z,64.70
2022-09-10T19:05:36.332Z,64.74
2022-09-10T19:08:02.647Z,64.73
2022-09-10T19:10:29.080Z,64.44
2022-09-10T19:12:55.413Z,64.69
2022-09-10T19:15:21.705Z,64.67
2022-09-10T19:17:48.029Z,64.61
2022-09-10T19:20:15.658Z,64.54
2022-09-10T19:22:42.070Z,64.53
2022-09-10T19:25:08.681Z,64.34
2022-09-10T19:27:35.023Z,64.24
2022-09-10T19:30:01.345Z,64.31
2022-09-10T19:32:27.654Z,64.22
2022-09-10T19:34:53.987Z,64.02
2022-09-10T19:37:21.587Z,64.13
2022-09-10T19:39:48.016Z,63.98
2022-09-10T19:42:14.461Z,64.18
2022-09-10T19:44:40.762Z,64.05
2022-09-10T19:47:07.098Z,64.00
2022-09-10T19:49:33.419Z,63.94
2022-09-10T19:51:59.724Z,63.90
2022-09-10T19:54:27.450Z,63.60
2022-09-10T19:56:53.790Z,63.79
2022-09-10T19:59:20.109Z,63.76
2022-09-10T20:01:46.542Z,63.68
2022-09-10T20:04:13.154Z,63.66
2022-09-10T20:06:39.526Z,63.46
2022-09-10T20:09:07.051Z,63.64
2022-09-10T20:11:35.117Z,63.43
2022-09-10T20:14:02.473Z,63.46
2022-09-10T20:16:29.037Z,63.48
2022-09-10T20:18:55.413Z,63.41
2022-09-10T20:21:22.533Z,63.38
2022-09-10T20:23:49.553Z,63.44
2022-09-10T20:26:17.118Z,63.28
2022-09-10T20:28:44.726Z,63.38
2022-09-10T20:31:13.000Z,63.23
2022-09-10T20:33:40.200Z,63.21
2022-09-10T20:36:08.769Z,63.19
2022-09-10T20:38:35.081Z,63.12
2022-09-10T20:41:01.430Z,63.13
2022-09-10T20:43:27.836Z,63.14
2022-09-10T20:45:55.659Z,63.01
2022-09-10T20:48:22.065Z,63.14
2022-09-10T20:50:51.622Z,63.11
2022-09-10T20:53:17.963Z,62.98
2022-09-10T20:55:44.251Z,62.96
2022-09-10T20:58:10.624Z,62.89
2022-09-10T21:00:36.977Z,62.86
2022-09-10T21:03:04.656Z,62.74
2022-09-10T21:05:30.986Z,62.77
2022-09-10T21:07:57.289Z,62.83
2022-09-10T21:10:23.592Z,62.62
2022-09-10T21:12:49.924Z,62.58
2022-09-10T21:15:16.297Z,62.57
2022-09-10T21:17:42.785Z,62.49
2022-09-10T21:20:10.703Z,62.57
2022-09-10T21:22:37.000Z,62.49
2022-09-10T21:25:03.621Z,62.37
2022-09-10T21:27:29.952Z,62.20
2022-09-10T21:29:56.353Z,62.29
2022-09-10T21:32:22.669Z,62.27
2022-09-10T21:34:49.006Z,62.26
2022-09-10T21:37:16.660Z,62.34
2022-09-10T21:39:42.972Z,62.28
2022-09-10T21:42:09.546Z,62.08
2022-09-10T21:44:35.891Z,62.16
2022-09-10T21:47:02.204Z,62.02
2022-09-10T21:49:28.646Z,61.89
2022-09-10T21:51:55.088Z,61.98
2022-09-10T21:54:22.813Z,61.92
2022-09-10T21:56:49.508Z,61.88
2022-09-10T21:59:16.063Z,62.00
2022-09-10T22:01:43.162Z,61.92
2022-09-10T22:04:09.844Z,62.04
2022-09-10T22:06:36.146Z,61.92
2022-09-10T22:09:03.877Z,61.79
2022-09-10T22:11:32.786Z,61.75
2022-09-10T22:13:59.949Z,61.69
2022-09-10T22:16:27.090Z,61.61
2022-09-10T22:18:55.011Z,61.69
2022-09-10T22:21:22.134Z,61.57
2022-09-10T22:23:48.614Z,61.57
2022-09-10T22:26:15.676Z,61.62
2022-09-10T22:28:43.478Z,61.49
2022-09-10T22:31:11.682Z,61.32
2022-09-10T22:33:38.390Z,61.42
2022-09-10T22:36:08.460Z,61.23
2022-09-10T22:38:34.809Z,61.33
2022-09-10T22:41:01.426Z,61.09
2022-09-10T22:43:27.759Z,61.01
2022-09-10T22:45:55.380Z,61.03
2022-09-10T22:48:21.717Z,61.04
2022-09-10T22:50:48.012Z,60.98
2022-09-10T22:53:14.442Z,60.92
2022-09-10T22:55:40.766Z,61.08
2022-09-10T22:58:07.107Z,61.08
2022-09-10T23:00:33.627Z,61.18
2022-09-10T23:03:01.272Z,61.09
2022-09-10T23:05:27.748Z,61.07
2022-09-10T23:07:54.040Z,60.98
2022-09-10T23:10:20.344Z,61.00
2022-09-10T23:12:46.653Z,61.05
2022-09-10T23:15:15.026Z,60.78
2022-09-10T23:17:41.359Z,60.91
2022-09-10T23:20:09.352Z,60.74
2022-09-10T23:22:35.650Z,60.78
2022-09-10T23:25:02.052Z,60.76
2022-09-10T23:27:28.342Z,60.61
2022-09-10T23:29:54.623Z,60.64
2022-09-10T23:32:20.944Z,60.47
2022-09-10T23:34:47.260Z,60.39
2022-09-10T23:37:14.950Z,60.39
2022-09-10T23:39:41.284Z,60.30
2022-09-10T23:42:07.612Z,60.34
2022-09-10T23:44:34.152Z,60.30
2022-09-10T23:47:00.544Z,60.31
2022-09-10T23:49:26.906Z,60.26
2022-09-10T23:51:53.302Z,60.01
2022-09-10T23:54:20.932Z,60.05
2022-09-10T23:56:47.382Z,60.04
2022-09-10T23:59:13.731Z,59.93
